createdAt,value
2023-09-08T00:02:04.635Z,11.13
2023-09-08T00:04:31.501Z,11.14
2023-09-08T00:06:58.314Z,11.12
2023-09-08T00:09:25.118Z,11.09
2023-09-08T00:11:51.770Z,11.07
2023-09-08T00:14:18.819Z,11.06
2023-09-08T00:16:45.571Z,11.03
2023-09-08T00:19:13.238Z,10.99
2023-09-08T00:21:40.110Z,10.97
2023-09-08T00:24:07.144Z,10.94
2023-09-08T00:26:34.396Z,10.92
2023-09-08T00:29:01.396Z,10.90
2023-09-08T00:31:28.190Z,10.88
2023-09-08T00:33:55.018Z,10.83
2023-09-08T00:36:21.951Z,10.78
2023-09-08T00:38:48.637Z,10.75
2023-09-08T00:41:15.403Z,10.79
2023-09-08T00:43:42.335Z,10.80
2023-09-08T00:46:10.685Z,10.78
2023-09-08T00:48:38.627Z,10.76
2023-09-08T00:51:05.964Z,10.75
2023-09-08T00:53:33.092Z,10.74
2023-09-08T00:56:01.250Z,10.71
2023-09-08T00:58:28.037Z,10.69
2023-09-08T01:00:54.800Z,10.65
2023-09-08T01:03:21.803Z,10.63
2023-09-08T01:05:49.111Z,10.59
2023-09-08T01:08:17.001Z,10.57
2023-09-08T01:10:44.128Z,10.54
2023-09-08T01:13:10.984Z,10.53
2023-09-08T01:15:38.181Z,10.53
2023-09-08T01:18:05.674Z,10.52
2023-09-08T01:20:41.149Z,10.52
2023-09-08T01:23:19.270Z,10.52
2023-09-08T01:25:59.777Z,10.52
2023-09-08T01:28:28.283Z,10.52
2023-09-08T01:30:57.343Z,10.52
2023-09-08T01:33:24.898Z,10.51
2023-09-08T01:35:52.564Z,10.49
2023-09-08T01:38:19.325Z,10.46
2023-09-08T01:40:46.155Z,10.43
2023-09-08T01:43:12.898Z,10.40
2023-09-08T01:45:39.772Z,10.36
2023-09-08T01:48:06.780Z,10.33
2023-09-08T01:50:33.456Z,10.30
2023-09-08T01:53:00.201Z,10.28
2023-09-08T01:55:26.852Z,10.27
2023-09-08T01:57:53.645Z,10.26
2023-09-08T02:00:20.585Z,10.23
2023-09-08T02:02:47.223Z,10.21
2023-09-08T02:05:14.040Z,10.20
2023-09-08T02:07:40.980Z,10.18
2023-09-08T02:10:08.040Z,10.13
2023-09-08T02:12:34.783Z,10.08
2023-09-08T02:15:01.481Z,10.02
2023-09-08T02:17:28.496Z,9.95
2023-09-08T02:19:55.236Z,9.91
2023-09-08T02:22:21.969Z,9.88
2023-09-08T02:24:48.625Z,9.87
2023-09-08T02:27:15.528Z,9.92
2023-09-08T02:29:42.365Z,9.95
2023-09-08T02:32:08.894Z,9.96
2023-09-08T02:34:37.025Z,9.99
2023-09-08T02:37:03.880Z,9.98
2023-09-08T02:39:30.557Z,9.95
2023-09-08T02:41:57.468Z,9.93
2023-09-08T02:44:24.114Z,9.94
2023-09-08T02:46:51.386Z,9.93
2023-09-08T02:49:18.209Z,9.89
2023-09-08T02:51:44.936Z,9.86
2023-09-08T02:54:11.819Z,9.82
2023-09-08T02:56:38.469Z,9.80
2023-09-08T02:59:05.208Z,9.77
2023-09-08T03:01:32.038Z,9.74
2023-09-08T03:03:59.090Z,9.75
2023-09-08T03:06:25.962Z,9.79
2023-09-08T03:08:52.704Z,9.80
2023-09-08T03:11:19.451Z,9.79
2023-09-08T03:13:46.210Z,9.79
2023-09-08T03:16:13.179Z,9.76
2023-09-08T03:18:40.023Z,9.73
2023-09-08T03:21:07.778Z,9.68
2023-09-08T03:23:34.527Z,9.63
2023-09-08T03:26:01.629Z,9.58
2023-09-08T03:28:28.313Z,9.55
2023-09-08T03:30:55.275Z,9.53
2023-09-08T03:33:22.343Z,9.50
2023-09-08T03:35:49.483Z,9.46
2023-09-08T03:38:16.125Z,9.42
2023-09-08T03:40:42.969Z,9.39
2023-09-08T03:43:09.754Z,9.37
2023-09-08T03:45:36.476Z,9.36
2023-09-08T03:48:03.457Z,9.37
2023-09-08T03:50:31.210Z,9.41
2023-09-08T03:52:58.292Z,9.44
2023-09-08T03:55:25.323Z,9.48
2023-09-08T03:57:52.079Z,9.51
2023-09-08T04:00:19.075Z,9.54
2023-09-08T04:02:46.226Z,9.60
2023-09-08T04:05:13.046Z,9.68
2023-09-08T04:07:39.872Z,9.76
2023-09-08T04:10:07.538Z,9.84
2023-09-08T04:12:34.390Z,9.92
2023-09-08T04:15:01.148Z,10.00
2023-09-08T04:17:27.881Z,10.09
2023-09-08T04:19:54.852Z,10.18
2023-09-08T04:22:21.895Z,10.29
2023-09-08T04:24:48.628Z,10.38
2023-09-08T04:27:15.968Z,10.49
2023-09-08T04:29:43.038Z,10.58
2023-09-08T04:32:09.628Z,10.65
2023-09-08T04:34:41.041Z,10.71
2023-09-08T04:37:08.528Z,10.77
2023-09-08T04:39:36.405Z,10.82
2023-09-08T04:42:03.336Z,10.86
2023-09-08T04:44:29.964Z,10.90
2023-09-08T04:46:56.667Z,10.95
2023-09-08T04:49:23.362Z,10.99
2023-09-08T04:51:50.019Z,11.06
2023-09-08T04:54:16.866Z,11.11
2023-09-08T04:56:43.594Z,11.15
2023-09-08T04:59:10.464Z,11.15
2023-09-08T05:01:37.114Z,11.17
2023-09-08T05:04:04.443Z,11.21
2023-09-08T05:06:31.216Z,11.27
2023-09-08T05:09:00.004Z,11.37
2023-09-08T05:11:26.917Z,11.46
2023-09-08T05:13:53.634Z,11.55
2023-09-08T05:16:21.188Z,11.64
2023-09-08T05:18:48.092Z,11.70
2023-09-08T05:21:14.787Z,11.80
2023-09-08T05:23:41.525Z,11.87
2023-09-08T05:26:08.306Z,11.89
2023-09-08T05:28:37.152Z,11.93
2023-09-08T05:31:05.757Z,12.01
2023-09-08T05:33:32.639Z,12.08
2023-09-08T05:35:59.436Z,12.12
2023-09-08T05:38:26.101Z,12.22
2023-09-08T05:40:52.833Z,12.31
2023-09-08T05:43:19.503Z,12.41
2023-09-08T05:45:46.316Z,12.51
2023-09-08T05:48:13.947Z,12.58
2023-09-08T05:50:41.065Z,12.60
2023-09-08T05:53:07.797Z,12.65
2023-09-08T05:55:34.437Z,12.71
2023-09-08T05:58:01.188Z,12.76
2023-09-08T06:00:27.944Z,12.87
2023-09-08T06:02:54.871Z,13.00
2023-09-08T06:05:21.628Z,13.13
2023-09-08T06:08:01.056Z,13.29
2023-09-08T06:10:32.356Z,13.42
2023-09-08T06:12:59.061Z,13.55
2023-09-08T06:15:25.838Z,13.63
2023-09-08T06:17:52.740Z,13.73
2023-09-08T06:20:19.530Z,13.87
2023-09-08T06:22:46.371Z,13.99
2023-09-08T06:25:13.200Z,14.15
2023-09-08T06:27:40.562Z,14.37
2023-09-08T06:30:08.021Z,14.65
2023-09-08T06:32:34.912Z,15.01
2023-09-08T06:35:01.723Z,15.36
2023-09-08T06:37:28.355Z,15.49
2023-09-08T06:39:56.231Z,15.60
2023-09-08T06:42:22.998Z,15.71
2023-09-08T06:44:49.717Z,15.83
2023-09-08T06:47:16.362Z,15.89
2023-09-08T06:49:43.262Z,16.12
2023-09-08T06:52:09.975Z,16.36
2023-09-08T06:54:36.628Z,16.62
2023-09-08T06:57:03.477Z,16.71
2023-09-08T06:59:30.224Z,16.64
2023-09-08T07:01:56.969Z,16.56
2023-09-08T07:04:24.242Z,16.96
2023-09-08T07:06:51.073Z,17.32
2023-09-08T07:09:17.816Z,17.71
2023-09-08T07:11:44.474Z,17.82
2023-09-08T07:14:11.209Z,18.04
2023-09-08T07:16:38.038Z,18.26
2023-09-08T07:19:05.476Z,18.67
2023-09-08T07:21:32.160Z,18.91
2023-09-08T07:23:58.807Z,19.24
2023-09-08T07:26:25.452Z,19.52
2023-09-08T07:28:52.301Z,19.71
2023-09-08T07:31:19.058Z,19.89
2023-09-08T07:33:45.753Z,20.13
2023-09-08T07:36:12.672Z,20.52
2023-09-08T07:38:39.540Z,21.03
2023-09-08T07:41:06.445Z,21.65
2023-09-08T07:43:33.126Z,22.15
2023-09-08T07:45:59.878Z,22.40
2023-09-08T07:48:26.942Z,22.68
2023-09-08T07:50:53.846Z,23.13
2023-09-08T07:53:20.509Z,23.30
2023-09-08T07:55:47.247Z,23.52
2023-09-08T07:58:14.236Z,23.85
2023-09-08T08:00:41.035Z,24.10
2023-09-08T08:03:07.817Z,24.23
2023-09-08T08:05:34.609Z,24.46
2023-09-08T08:08:01.448Z,24.24
2023-09-08T08:10:28.420Z,24.27
2023-09-08T08:12:55.163Z,24.41
2023-09-08T08:15:22.262Z,24.55
2023-09-08T08:17:49.289Z,24.59
2023-09-08T08:20:16.238Z,24.10
2023-09-08T08:22:42.945Z,23.63
2023-09-08T08:25:11.624Z,23.67
2023-09-08T08:27:41.000Z,24.02
2023-09-08T08:30:08.720Z,24.41
2023-09-08T08:32:35.579Z,24.66
2023-09-08T08:35:02.419Z,24.69
2023-09-08T08:37:29.807Z,24.74
2023-09-08T08:39:56.454Z,24.50
2023-09-08T08:42:23.133Z,24.27
2023-09-08T08:44:50.644Z,24.07
2023-09-08T08:47:18.074Z,24.22
2023-09-08T08:49:45.706Z,24.59
2023-09-08T08:52:12.835Z,24.80
2023-09-08T08:54:40.723Z,24.50
2023-09-08T08:57:08.410Z,24.53
2023-09-08T08:59:35.228Z,24.87
2023-09-08T09:02:03.937Z,25.21
2023-09-08T09:04:31.013Z,25.28
2023-09-08T09:06:58.421Z,25.40
2023-09-08T09:09:30.014Z,25.44
2023-09-08T09:11:56.959Z,25.46
2023-09-08T09:14:23.849Z,25.16
2023-09-08T09:16:50.871Z,25.16
2023-09-08T09:19:26.568Z,25.32
2023-09-08T09:21:53.347Z,25.39
2023-09-08T09:24:32.379Z,25.62
2023-09-08T09:26:59.213Z,26.04
2023-09-08T09:29:26.084Z,26.18
2023-09-08T09:31:58.005Z,25.99
2023-09-08T09:34:25.179Z,26.02
2023-09-08T09:36:52.845Z,26.17
2023-09-08T09:39:23.903Z,26.49
2023-09-08T09:41:54.753Z,26.87
2023-09-08T09:44:23.055Z,27.35
2023-09-08T09:46:50.204Z,27.77
2023-09-08T09:49:17.791Z,27.92
2023-09-08T09:51:54.424Z,27.91
2023-09-08T09:54:21.177Z,28.13
2023-09-08T09:56:49.657Z,28.27
2023-09-08T09:59:18.048Z,28.53
2023-09-08T10:01:45.712Z,28.84
2023-09-08T10:04:13.700Z,28.95
2023-09-08T10:06:40.912Z,28.98
2023-09-08T10:09:08.294Z,28.88
2023-09-08T10:11:49.778Z,28.86
2023-09-08T10:14:18.270Z,28.88
2023-09-08T10:16:46.737Z,28.94
2023-09-08T10:19:13.708Z,29.24
2023-09-08T10:21:47.466Z,29.44
2023-09-08T10:24:39.579Z,29.51
2023-09-08T10:27:06.518Z,29.74
2023-09-08T10:29:34.074Z,29.71
2023-09-08T10:32:02.142Z,29.49
2023-09-08T10:34:31.089Z,29.48
2023-09-08T10:36:58.103Z,29.31
2023-09-08T10:39:37.889Z,29.29
2023-09-08T10:42:24.892Z,29.19
2023-09-08T10:44:51.607Z,28.96
2023-09-08T10:47:24.821Z,28.79
2023-09-08T10:49:52.694Z,28.41
2023-09-08T10:52:22.944Z,28.39
2023-09-08T10:54:51.345Z,28.90
2023-09-08T10:57:29.004Z,29.08
2023-09-08T10:59:58.187Z,29.14
2023-09-08T11:02:40.153Z,28.84
2023-09-08T11:05:11.982Z,28.79
2023-09-08T11:07:39.566Z,28.70
2023-09-08T11:10:07.567Z,28.60
2023-09-08T11:12:34.880Z,28.76
2023-09-08T11:15:03.723Z,28.77
2023-09-08T11:17:30.471Z,28.63
2023-09-08T11:19:57.885Z,28.73
2023-09-08T11:22:26.457Z,28.52
2023-09-08T11:24:54.550Z,27.90
2023-09-08T11:27:22.731Z,27.77
2023-09-08T11:29:50.713Z,27.78
2023-09-08T11:32:17.469Z,28.09
2023-09-08T11:34:44.202Z,28.52
2023-09-08T11:37:11.394Z,28.50
2023-09-08T11:39:39.840Z,28.37
2023-09-08T11:42:08.324Z,28.23
2023-09-08T11:44:36.831Z,28.12
2023-09-08T11:47:05.140Z,27.99
2023-09-08T11:49:39.052Z,27.84
2023-09-08T11:52:06.734Z,27.77
2023-09-08T11:54:36.200Z,27.62
2023-09-08T11:57:05.741Z,27.50
2023-09-08T11:59:34.769Z,27.60
2023-09-08T12:02:02.069Z,27.46
2023-09-08T12:04:29.159Z,27.43
2023-09-08T12:06:56.504Z,27.44
2023-09-08T12:09:24.156Z,27.36
2023-09-08T12:11:51.400Z,27.43
2023-09-08T12:14:18.142Z,27.51
2023-09-08T12:16:45.070Z,27.58
2023-09-08T12:19:31.611Z,28.31
2023-09-08T12:22:03.194Z,29.25
2023-09-08T12:24:54.699Z,29.66
2023-09-08T12:27:21.346Z,29.30
2023-09-08T12:29:59.054Z,29.07
2023-09-08T12:32:27.031Z,29.01
2023-09-08T12:34:54.078Z,28.94
2023-09-08T12:37:24.855Z,28.72
2023-09-08T12:39:52.343Z,28.52
2023-09-08T12:42:19.658Z,28.31
2023-09-08T12:44:46.853Z,28.15
2023-09-08T12:47:13.703Z,28.13
2023-09-08T12:49:40.954Z,28.04
2023-09-08T12:52:07.786Z,27.94
2023-09-08T12:54:34.535Z,27.77
2023-09-08T12:57:01.266Z,27.70
2023-09-08T12:59:28.206Z,27.86
2023-09-08T13:01:55.065Z,27.88
2023-09-08T13:04:21.807Z,27.83
2023-09-08T13:06:48.480Z,27.92
2023-09-08T13:09:15.196Z,28.16
2023-09-08T13:11:43.068Z,28.41
2023-09-08T13:14:09.948Z,28.53
2023-09-08T13:16:39.609Z,28.61
2023-09-08T13:19:06.371Z,28.35
2023-09-08T13:21:33.013Z,28.04
2023-09-08T13:23:59.658Z,27.97
2023-09-08T13:26:26.403Z,28.07
2023-09-08T13:28:53.523Z,28.13
2023-09-08T13:31:20.719Z,28.17
2023-09-08T13:33:47.944Z,28.25
2023-09-08T13:36:14.828Z,28.48
2023-09-08T13:38:41.568Z,28.54
2023-09-08T13:41:08.212Z,28.87
2023-09-08T13:43:35.061Z,29.08
2023-09-08T13:46:01.816Z,28.84
2023-09-08T13:48:28.885Z,28.48
2023-09-08T13:50:56.401Z,28.15
2023-09-08T13:53:40.604Z,27.94
2023-09-08T13:56:10.088Z,27.70
2023-09-08T13:58:48.533Z,27.61
2023-09-08T14:01:20.698Z,27.59
2023-09-08T14:06:21.360Z,28.35
2023-09-08T14:11:27.634Z,29.68
2023-09-08T14:14:02.403Z,30.13
2023-09-08T14:16:29.545Z,30.38
2023-09-08T14:18:56.270Z,30.92
2023-09-08T14:21:22.916Z,31.43
2023-09-08T14:23:49.698Z,31.72
2023-09-08T14:26:16.585Z,32.07
2023-09-08T14:28:43.464Z,32.49
2023-09-08T14:31:10.201Z,32.72
2023-09-08T14:33:37.381Z,32.71
2023-09-08T14:36:04.579Z,32.79
2023-09-08T14:38:31.362Z,32.74
2023-09-08T14:41:00.187Z,32.63
2023-09-08T14:43:28.036Z,32.75
2023-09-08T14:45:55.589Z,32.97
2023-09-08T14:48:22.417Z,33.18
2023-09-08T14:50:49.306Z,33.33
2023-09-08T14:53:17.327Z,33.18
2023-09-08T14:55:44.126Z,33.23
2023-09-08T14:58:11.902Z,33.45
2023-09-08T15:00:38.731Z,33.42
2023-09-08T15:03:06.601Z,33.15
2023-09-08T15:05:34.592Z,32.81
2023-09-08T15:08:01.819Z,31.79
2023-09-08T15:10:29.250Z,30.67
2023-09-08T15:12:56.206Z,29.67
2023-09-08T15:15:22.933Z,28.97
2023-09-08T15:17:49.659Z,28.58
2023-09-08T15:20:16.503Z,28.31
2023-09-08T15:22:43.175Z,27.98
2023-09-08T15:25:10.607Z,27.70
2023-09-08T15:27:37.244Z,27.49
2023-09-08T15:30:04.501Z,27.31
2023-09-08T15:32:31.165Z,27.10
2023-09-08T15:34:57.791Z,26.84
2023-09-08T15:37:24.483Z,26.64
2023-09-08T15:39:51.370Z,26.51
2023-09-08T15:42:17.971Z,26.37
2023-09-08T15:44:44.671Z,26.21
2023-09-08T15:47:11.411Z,26.13
2023-09-08T15:49:38.085Z,26.07
2023-09-08T15:52:15.588Z,26.01
2023-09-08T15:54:43.904Z,25.89
2023-09-08T15:57:10.744Z,25.84
2023-09-08T15:59:37.448Z,25.73
2023-09-08T16:02:04.476Z,25.65
2023-09-08T16:04:31.506Z,25.59
2023-09-08T16:06:58.298Z,25.49
2023-09-08T16:09:24.941Z,25.49
2023-09-08T16:11:51.597Z,25.76
2023-09-08T16:14:18.233Z,26.27
2023-09-08T16:16:44.992Z,26.79
2023-09-08T16:19:11.933Z,27.20
2023-09-08T16:21:38.570Z,27.30
2023-09-08T16:24:05.414Z,27.43
2023-09-08T16:26:32.088Z,27.42
2023-09-08T16:28:58.812Z,27.20
2023-09-08T16:31:25.479Z,26.83
2023-09-08T16:33:52.197Z,26.27
2023-09-08T16:36:18.946Z,25.75
2023-09-08T16:38:45.696Z,25.35
2023-09-08T16:41:12.349Z,24.92
2023-09-08T16:43:39.255Z,24.51
2023-09-08T16:46:06.171Z,24.20
2023-09-08T16:48:32.973Z,23.95
2023-09-08T16:50:59.617Z,23.75
2023-09-08T16:53:26.280Z,23.53
2023-09-08T16:55:53.056Z,23.23
2023-09-08T16:58:19.775Z,23.01
2023-09-08T17:00:46.839Z,22.82
2023-09-08T17:03:13.609Z,22.75
2023-09-08T17:05:42.760Z,22.74
2023-09-08T17:08:10.649Z,22.77
2023-09-08T17:10:37.466Z,22.82
2023-09-08T17:13:04.274Z,22.87
2023-09-08T17:15:31.045Z,22.88
2023-09-08T17:17:57.817Z,22.87
2023-09-08T17:20:24.663Z,22.87
2023-09-08T17:22:51.652Z,22.81
2023-09-08T17:25:18.391Z,22.61
2023-09-08T17:27:45.102Z,22.43
2023-09-08T17:30:12.499Z,22.22
2023-09-08T17:32:39.351Z,22.06
2023-09-08T17:35:06.715Z,21.91
2023-09-08T17:37:33.562Z,21.77
2023-09-08T17:40:00.309Z,21.62
2023-09-08T17:42:26.949Z,21.50
2023-09-08T17:44:53.593Z,21.36
2023-09-08T17:47:20.335Z,21.18
2023-09-08T17:49:46.980Z,21.05
2023-09-08T17:52:13.663Z,20.93
2023-09-08T17:54:40.402Z,20.81
2023-09-08T17:57:07.127Z,20.71
2023-09-08T17:59:33.903Z,20.66
2023-09-08T18:02:00.785Z,20.57
2023-09-08T18:04:27.781Z,20.42
2023-09-08T18:06:54.693Z,20.25
2023-09-08T18:09:21.668Z,20.06
2023-09-08T18:11:48.420Z,19.89
2023-09-08T18:14:15.077Z,19.76
2023-09-08T18:16:42.046Z,19.63
2023-09-08T18:19:08.960Z,19.35
2023-09-08T18:21:35.688Z,19.08
2023-09-08T18:24:02.658Z,18.83
2023-09-08T18:26:29.300Z,18.67
2023-09-08T18:28:55.997Z,18.62
2023-09-08T18:31:22.877Z,18.68
2023-09-08T18:33:49.686Z,18.67
2023-09-08T18:36:16.389Z,18.64
2023-09-08T18:38:43.128Z,18.59
2023-09-08T18:41:09.874Z,18.49
2023-09-08T18:43:36.727Z,18.42
2023-09-08T18:46:03.672Z,18.29
2023-09-08T18:48:30.575Z,18.12
2023-09-08T18:50:57.289Z,18.01
2023-09-08T18:53:24.130Z,17.96
2023-09-08T18:55:51.126Z,17.90
2023-09-08T18:58:17.822Z,17.79
2023-09-08T19:00:45.486Z,17.64
2023-09-08T19:03:13.187Z,17.46
2023-09-08T19:05:40.108Z,17.34
2023-09-08T19:08:07.092Z,17.29
2023-09-08T19:10:34.223Z,17.29
2023-09-08T19:13:00.860Z,17.33
2023-09-08T19:15:27.499Z,17.33
2023-09-08T19:17:54.217Z,17.33
2023-09-08T19:20:20.985Z,17.32
2023-09-08T19:22:47.770Z,17.27
2023-09-08T19:25:14.510Z,17.15
2023-09-08T19:27:41.236Z,17.18
2023-09-08T19:30:08.583Z,17.29
2023-09-08T19:32:36.076Z,17.32
2023-09-08T19:35:02.837Z,17.18
2023-09-08T19:37:29.691Z,17.13
2023-09-08T19:39:56.549Z,17.08
2023-09-08T19:42:23.441Z,16.96
2023-09-08T19:44:50.182Z,16.83
2023-09-08T19:47:17.068Z,16.69
2023-09-08T19:49:43.775Z,16.58
2023-09-08T19:52:11.872Z,16.47
2023-09-08T19:54:38.510Z,16.39
2023-09-08T19:57:06.194Z,16.45
2023-09-08T19:59:33.238Z,16.50
2023-09-08T20:01:59.919Z,16.60
2023-09-08T20:04:26.664Z,16.64
2023-09-08T20:06:53.852Z,16.59
2023-09-08T20:09:21.439Z,16.51
2023-09-08T20:11:48.084Z,16.51
2023-09-08T20:14:15.033Z,16.53
2023-09-08T20:16:41.797Z,16.50
2023-09-08T20:19:08.426Z,16.28
2023-09-08T20:21:35.197Z,16.09
2023-09-08T20:24:01.914Z,15.95
2023-09-08T20:26:28.667Z,15.80
2023-09-08T20:28:55.435Z,15.69
2023-09-08T20:31:22.244Z,15.50
2023-09-08T20:33:48.889Z,15.36
2023-09-08T20:36:16.174Z,15.24
2023-09-08T20:38:43.836Z,15.14
2023-09-08T20:41:11.675Z,15.04
2023-09-08T20:43:39.260Z,14.95
2023-09-08T20:46:06.500Z,14.85
2023-09-08T20:48:35.508Z,14.77
2023-09-08T20:51:06.996Z,14.70
2023-09-08T20:53:35.367Z,14.66
2023-09-08T20:56:03.135Z,14.61
2023-09-08T20:58:30.324Z,14.56
2023-09-08T21:00:58.518Z,14.53
2023-09-08T21:03:25.931Z,14.50
2023-09-08T21:05:52.687Z,14.47
2023-09-08T21:08:20.257Z,14.43
2023-09-08T21:10:48.120Z,14.38
2023-09-08T21:13:15.279Z,14.33
2023-09-08T21:15:42.470Z,14.26
2023-09-08T21:18:09.753Z,14.23
2023-09-08T21:20:37.188Z,14.20
2023-09-08T21:23:04.415Z,14.16
2023-09-08T21:25:35.703Z,14.13
2023-09-08T21:28:03.124Z,14.07
2023-09-08T21:30:30.177Z,14.02
2023-09-08T21:32:57.270Z,13.98
2023-09-08T21:35:24.089Z,13.93
2023-09-08T21:37:50.730Z,13.89
2023-09-08T21:40:17.635Z,13.86
2023-09-08T21:42:44.726Z,13.82
2023-09-08T21:45:11.695Z,13.78
2023-09-08T21:47:38.494Z,13.75
2023-09-08T21:50:05.925Z,13.71
2023-09-08T21:52:38.356Z,13.66
2023-09-08T21:55:10.084Z,13.63
2023-09-08T21:57:36.899Z,13.60
2023-09-08T22:00:04.109Z,13.59
2023-09-08T22:02:31.138Z,13.59
2023-09-08T22:04:58.084Z,13.55
2023-09-08T22:07:25.108Z,13.51
2023-09-08T22:09:54.830Z,13.46
2023-09-08T22:12:21.572Z,13.40
2023-09-08T22:14:51.077Z,13.35
2023-09-08T22:17:17.936Z,13.30
2023-09-08T22:19:44.662Z,13.25
2023-09-08T22:22:11.421Z,13.20
2023-09-08T22:24:38.105Z,13.22
2023-09-08T22:27:05.047Z,13.25
2023-09-08T22:29:32.176Z,13.26
2023-09-08T22:31:59.096Z,13.30
2023-09-08T22:34:25.875Z,13.33
2023-09-08T22:36:52.721Z,13.34
2023-09-08T22:39:19.570Z,13.30
2023-09-08T22:41:46.217Z,13.26
2023-09-08T22:44:13.066Z,13.23
2023-09-08T22:46:39.934Z,13.18
2023-09-08T22:49:06.875Z,13.12
2023-09-08T22:51:33.708Z,13.07
2023-09-08T22:54:00.466Z,13.05
2023-09-08T22:56:27.121Z,13.01
2023-09-08T22:58:53.747Z,12.95
2023-09-08T23:01:20.605Z,12.91
2023-09-08T23:03:47.550Z,12.89
2023-09-08T23:06:14.913Z,12.86
2023-09-08T23:08:41.756Z,12.81
2023-09-08T23:11:08.535Z,12.77
2023-09-08T23:13:35.678Z,12.74
2023-09-08T23:16:03.011Z,12.73
2023-09-08T23:18:29.755Z,12.69
2023-09-08T23:20:56.565Z,12.66
2023-09-08T23:23:23.366Z,12.60
2023-09-08T23:25:50.714Z,12.55
2023-09-08T23:28:17.369Z,12.51
2023-09-08T23:30:44.048Z,12.45
2023-09-08T23:33:11.130Z,12.42
2023-09-08T23:35:38.111Z,12.37
2023-09-08T23:38:05.061Z,12.33
2023-09-08T23:40:31.713Z,12.30
2023-09-08T23:42:58.379Z,12.28
2023-09-08T23:45:25.198Z,12.27
2023-09-08T23:47:52.132Z,12.25
2023-09-08T23:50:19.053Z,12.22
2023-09-08T23:52:45.867Z,12.20
2023-09-08T23:55:12.621Z,12.18
2023-09-08T23:57:39.412Z,12.15
